createdAt,value
2024-03-28T00:00:40.213Z,97.75
2024-03-28T00:01:40.216Z,97.44
2024-03-28T00:02:40.192Z,97.39
2024-03-28T00:03:40.182Z,98.42
2024-03-28T00:04:40.614Z,97.65
2024-03-28T00:05:40.191Z,98.27
2024-03-28T00:06:40.158Z,98.32
2024-03-28T00:07:40.150Z,97.90
2024-03-28T00:08:40.155Z,97.90
2024-03-28T00:09:40.170Z,98.32
2024-03-28T00:10:40.145Z,98.72
2024-03-28T00:11:40.138Z,98.00
2024-03-28T00:12:40.124Z,98.21
2024-03-28T00:13:40.110Z,97.18
2024-03-28T00:14:40.107Z,96.77
2024-03-28T00:15:40.128Z,97.28
2024-03-28T00:16:40.095Z,97.28
2024-03-28T00:17:40.098Z,97.28
2024-03-28T00:18:40.095Z,96.25
2024-03-28T00:19:40.103Z,95.95
2024-03-28T00:20:40.233Z,95.99
2024-03-28T00:21:40.065Z,96.20
2024-03-28T00:22:40.063Z,95.89
2024-03-28T00:23:40.058Z,96.30
2024-03-28T00:24:40.055Z,96.61
2024-03-28T00:25:40.048Z,96.20
2024-03-28T00:26:40.042Z,96.41
2024-03-28T00:27:40.026Z,97.43
2024-03-28T00:28:40.028Z,96.09
2024-03-28T00:29:40.028Z,95.27
2024-03-28T00:30:40.012Z,96.09
2024-03-28T00:31:40.020Z,96.30
2024-03-28T00:32:39.993Z,96.20
2024-03-28T00:33:39.992Z,95.58
2024-03-28T00:34:39.991Z,95.31
2024-03-28T00:35:39.974Z,95.68
2024-03-28T00:36:39.986Z,95.10
2024-03-28T00:37:39.951Z,95.21
2024-03-28T00:38:39.949Z,95.00
2024-03-28T00:39:39.938Z,94.28
2024-03-28T00:40:39.935Z,94.49
2024-03-28T00:41:39.930Z,95.42
2024-03-28T00:42:39.942Z,95.10
2024-03-28T00:43:39.925Z,95.00
2024-03-28T00:44:40.068Z,95.21
2024-03-28T00:45:40.901Z,95.52
2024-03-28T00:46:39.890Z,95.10
2024-03-28T00:47:39.916Z,95.10
2024-03-28T00:48:39.890Z,95.10
2024-03-28T00:49:39.876Z,95.52
2024-03-28T00:50:39.878Z,95.42
2024-03-28T00:51:39.866Z,95.31
2024-03-28T00:52:39.877Z,96.08
2024-03-28T00:53:39.856Z,96.14
2024-03-28T00:54:39.837Z,95.67
2024-03-28T00:55:39.843Z,95.42
2024-03-28T00:56:39.841Z,95.00
2024-03-28T00:57:39.838Z,95.21
2024-03-28T00:58:39.832Z,95.25
2024-03-28T00:59:39.835Z,95.36
2024-03-28T01:00:39.817Z,95.67
2024-03-28T01:01:39.803Z,95.10
2024-03-28T01:02:39.787Z,95.05
2024-03-28T01:03:39.789Z,95.36
2024-03-28T01:04:39.800Z,95.25
2024-03-28T01:05:39.776Z,95.56
2024-03-28T01:06:39.781Z,95.15
2024-03-28T01:07:39.782Z,95.05
2024-03-28T01:08:39.757Z,95.46
2024-03-28T01:09:41.885Z,95.05
2024-03-28T01:10:40.737Z,95.42
2024-03-28T01:11:39.729Z,95.36
2024-03-28T01:12:39.738Z,95.36
2024-03-28T01:13:39.721Z,95.05
2024-03-28T01:14:39.724Z,95.05
2024-03-28T01:15:39.710Z,95.05
2024-03-28T01:16:39.717Z,94.53
2024-03-28T01:17:39.694Z,95.36
2024-03-28T01:18:39.684Z,95.36
2024-03-28T01:19:39.687Z,95.87
2024-03-28T01:20:39.684Z,96.18
2024-03-28T01:21:39.670Z,96.28
2024-03-28T01:22:39.666Z,96.18
2024-03-28T01:23:39.648Z,96.91
2024-03-28T01:24:39.650Z,97.01
2024-03-28T01:25:39.695Z,96.59
2024-03-28T01:26:39.625Z,96.18
2024-03-28T01:27:39.634Z,96.23
2024-03-28T01:28:39.636Z,95.15
2024-03-28T01:29:39.666Z,95.25
2024-03-28T01:30:39.620Z,95.46
2024-03-28T01:31:39.662Z,95.46
2024-03-28T01:32:39.618Z,94.43
2024-03-28T01:33:39.593Z,95.25
2024-03-28T01:34:39.580Z,95.46
2024-03-28T01:35:39.569Z,94.64
2024-03-28T01:36:39.584Z,94.23
2024-03-28T01:37:39.552Z,95.05
2024-03-28T01:38:39.542Z,96.39
2024-03-28T01:39:39.538Z,97.11
2024-03-28T01:40:39.713Z,98.19
2024-03-28T01:41:39.542Z,97.77
2024-03-28T01:42:39.511Z,98.24
2024-03-28T01:43:39.518Z,98.45
2024-03-28T01:44:39.503Z,98.35
2024-03-28T01:45:39.525Z,98.14
2024-03-28T01:46:43.708Z,98.76
2024-03-28T01:47:48.837Z,98.35
2024-03-28T01:48:41.497Z,98.03
2024-03-28T01:49:39.479Z,98.03
2024-03-28T01:50:39.476Z,98.35
2024-03-28T01:51:39.497Z,98.08
2024-03-28T01:52:39.466Z,98.14
2024-03-28T01:53:39.461Z,97.94
2024-03-28T01:54:39.439Z,98.60
2024-03-28T01:55:39.450Z,98.80
2024-03-28T01:56:39.430Z,99.73
2024-03-28T01:57:39.442Z,99.99
2024-03-28T01:58:39.454Z,99.11
2024-03-28T01:59:39.421Z,99.94
2024-03-28T02:00:39.409Z,99.94
2024-03-28T02:01:39.407Z,99.84
2024-03-28T02:02:39.410Z,99.99
2024-03-28T02:03:39.383Z,99.88
2024-03-28T02:04:39.377Z,99.99
2024-03-28T02:05:39.385Z,99.99
2024-03-28T02:06:39.435Z,99.99
2024-03-28T02:07:39.383Z,99.99
2024-03-28T02:08:39.353Z,99.99
2024-03-28T02:09:39.373Z,99.99
2024-03-28T02:10:39.367Z,99.99
2024-03-28T02:11:39.345Z,99.99
2024-03-28T02:12:39.342Z,99.99
2024-03-28T02:13:39.322Z,99.99
2024-03-28T02:14:39.338Z,99.99
2024-03-28T02:15:39.306Z,99.99
2024-03-28T02:16:39.300Z,99.99
2024-03-28T02:17:39.310Z,99.99
2024-03-28T02:18:39.288Z,99.99
2024-03-28T02:19:39.290Z,99.99
2024-03-28T02:20:39.282Z,99.99
2024-03-28T02:21:39.274Z,99.99
2024-03-28T02:22:39.289Z,99.99
2024-03-28T02:23:39.262Z,99.99
2024-03-28T02:24:39.253Z,99.99
2024-03-28T02:25:39.249Z,99.99
2024-03-28T02:26:39.243Z,99.99
2024-03-28T02:27:39.244Z,99.99
2024-03-28T02:28:39.275Z,99.99
2024-03-28T02:29:39.222Z,99.99
2024-03-28T02:30:39.206Z,99.99
2024-03-28T02:31:40.218Z,99.99
2024-03-28T02:32:39.211Z,99.99
2024-03-28T02:33:39.203Z,99.99
2024-03-28T02:34:39.183Z,99.99
2024-03-28T02:35:39.201Z,99.99
2024-03-28T02:36:39.174Z,99.99
2024-03-28T02:37:39.179Z,99.99
2024-03-28T02:38:39.156Z,99.99
2024-03-28T02:39:39.152Z,99.99
2024-03-28T02:40:39.147Z,99.99
2024-03-28T02:41:39.135Z,99.99
2024-03-28T02:42:39.147Z,99.99
2024-03-28T02:43:39.131Z,99.99
2024-03-28T02:44:39.129Z,99.99
2024-03-28T02:45:39.107Z,99.99
2024-03-28T02:46:39.120Z,99.99
2024-03-28T02:47:39.103Z,99.99
2024-03-28T02:48:39.140Z,99.99
2024-03-28T02:49:39.094Z,99.99
2024-03-28T02:50:39.079Z,99.99
2024-03-28T02:51:39.072Z,99.99
2024-03-28T02:52:39.085Z,99.99
2024-03-28T02:53:39.082Z,99.99
2024-03-28T02:54:39.053Z,99.99
2024-03-28T02:55:39.051Z,99.99
2024-03-28T02:56:39.040Z,99.99
2024-03-28T02:57:39.032Z,99.99
2024-03-28T02:58:39.026Z,99.99
2024-03-28T02:59:39.035Z,99.99
2024-03-28T03:00:39.025Z,99.99
2024-03-28T03:01:39.004Z,99.99
2024-03-28T03:02:39.008Z,99.99
2024-03-28T03:03:39.000Z,99.99
2024-03-28T03:04:39.000Z,99.99
2024-03-28T03:05:38.982Z,99.99
2024-03-28T03:06:40.472Z,99.99
2024-03-28T03:07:38.968Z,99.99
2024-03-28T03:08:38.961Z,99.99
2024-03-28T03:09:38.964Z,99.99
2024-03-28T03:10:38.975Z,99.99
2024-03-28T03:11:38.935Z,99.99
2024-03-28T03:12:38.934Z,99.99
2024-03-28T03:13:38.924Z,99.99
2024-03-28T03:14:38.929Z,99.99
2024-03-28T03:15:38.916Z,99.99
2024-03-28T03:16:38.910Z,99.99
2024-03-28T03:17:38.890Z,99.99
2024-03-28T03:18:38.892Z,99.99
2024-03-28T03:19:38.879Z,99.99
2024-03-28T03:20:38.888Z,99.99
2024-03-28T03:21:38.875Z,99.99
2024-03-28T03:22:38.864Z,99.99
2024-03-28T03:23:38.858Z,99.99
2024-03-28T03:24:38.863Z,99.99
2024-03-28T03:25:38.850Z,99.99
2024-03-28T03:26:38.842Z,99.99
2024-03-28T03:27:38.840Z,99.99
2024-03-28T03:28:38.826Z,99.99
2024-03-28T03:29:38.813Z,99.99
2024-03-28T03:30:38.818Z,99.99
2024-03-28T03:31:38.797Z,99.99
2024-03-28T03:32:38.798Z,99.99
2024-03-28T03:33:38.785Z,99.99
2024-03-28T03:34:38.774Z,99.99
2024-03-28T03:35:38.771Z,99.99
2024-03-28T03:36:38.775Z,99.99
2024-03-28T03:37:38.773Z,99.99
2024-03-28T03:38:38.757Z,99.99
2024-03-28T03:39:38.744Z,99.99
2024-03-28T03:40:38.735Z,99.99
2024-03-28T03:41:38.745Z,99.99
2024-03-28T03:42:38.720Z,99.99
2024-03-28T03:43:38.747Z,99.99
2024-03-28T03:44:38.724Z,99.99
2024-03-28T03:45:38.706Z,99.99
2024-03-28T03:46:38.711Z,99.99
2024-03-28T03:47:38.707Z,99.99
2024-03-28T03:48:38.699Z,99.99
2024-03-28T03:49:38.678Z,99.99
2024-03-28T03:50:38.683Z,99.99
2024-03-28T03:51:38.679Z,99.99
2024-03-28T03:52:38.670Z,99.99
2024-03-28T03:53:38.659Z,99.99
2024-03-28T03:54:38.999Z,99.99
2024-03-28T03:55:39.523Z,99.99
2024-03-28T03:56:38.691Z,99.99
2024-03-28T03:57:38.630Z,99.99
2024-03-28T03:58:38.640Z,99.99
2024-03-28T03:59:38.623Z,99.99
2024-03-28T04:00:38.613Z,99.99
2024-03-28T04:01:38.612Z,99.99
2024-03-28T04:02:38.595Z,99.99
2024-03-28T04:03:38.627Z,99.99
2024-03-28T04:04:38.588Z,99.99
2024-03-28T04:05:38.576Z,99.99
2024-03-28T04:06:38.574Z,99.99
2024-03-28T04:07:38.586Z,99.99
2024-03-28T04:08:38.555Z,99.99
2024-03-28T04:09:38.550Z,99.99
2024-03-28T04:10:39.531Z,99.99
2024-03-28T04:11:38.557Z,99.99
2024-03-28T04:12:38.611Z,99.99
2024-03-28T04:13:38.532Z,99.99
2024-03-28T04:14:43.520Z,99.99
2024-03-28T04:15:40.514Z,99.99
2024-03-28T04:16:38.501Z,99.99
2024-03-28T04:17:38.511Z,99.99
2024-03-28T04:18:38.505Z,99.99
2024-03-28T04:19:38.487Z,99.99
2024-03-28T04:20:38.487Z,99.99
2024-03-28T04:21:40.742Z,99.99
2024-03-28T04:22:38.492Z,99.99
2024-03-28T04:23:38.470Z,99.99
2024-03-28T04:24:38.447Z,99.99
2024-03-28T04:25:38.440Z,99.99
2024-03-28T04:26:38.435Z,99.99
2024-03-28T04:27:38.427Z,99.99
2024-03-28T04:28:38.439Z,99.99
2024-03-28T04:29:38.510Z,99.99
2024-03-28T04:30:38.411Z,99.99
2024-03-28T04:31:38.402Z,99.99
2024-03-28T04:32:38.401Z,99.99
2024-03-28T04:33:38.418Z,99.99
2024-03-28T04:34:38.375Z,99.99
2024-03-28T04:35:38.396Z,99.99
2024-03-28T04:36:38.371Z,99.99
2024-03-28T04:37:38.368Z,99.99
2024-03-28T04:38:39.608Z,99.99
2024-03-28T04:39:38.356Z,99.99
2024-03-28T04:40:38.349Z,99.99
2024-03-28T04:41:38.343Z,99.99
2024-03-28T04:42:38.339Z,99.99
2024-03-28T04:43:39.453Z,99.99
2024-03-28T04:44:39.331Z,99.99
2024-03-28T04:45:39.315Z,99.99
2024-03-28T04:46:38.307Z,99.99
2024-03-28T04:47:38.322Z,99.99
2024-03-28T04:48:38.318Z,99.99
2024-03-28T04:49:38.308Z,99.99
2024-03-28T04:50:38.280Z,99.99
2024-03-28T04:51:38.294Z,99.99
2024-03-28T04:52:38.282Z,99.99
2024-03-28T04:53:38.263Z,99.99
2024-03-28T04:54:38.269Z,99.99
2024-03-28T04:55:38.255Z,99.99
2024-03-28T04:56:38.243Z,99.99
2024-03-28T04:57:38.237Z,99.99
2024-03-28T04:58:38.231Z,99.99
2024-03-28T04:59:38.229Z,99.99
2024-03-28T05:00:38.213Z,99.99
2024-03-28T05:01:38.242Z,99.99
2024-03-28T05:02:38.223Z,99.99
2024-03-28T05:03:38.208Z,99.99
2024-03-28T05:04:38.187Z,99.99
2024-03-28T05:05:38.184Z,99.99
2024-03-28T05:06:38.184Z,99.99
2024-03-28T05:07:38.171Z,99.99
2024-03-28T05:08:38.176Z,99.99
2024-03-28T05:09:38.156Z,99.99
2024-03-28T05:10:38.158Z,99.99
2024-03-28T05:11:38.148Z,99.99
2024-03-28T05:12:38.143Z,99.99
2024-03-28T05:13:38.141Z,99.99
2024-03-28T05:14:38.132Z,99.99
2024-03-28T05:15:38.118Z,99.99
2024-03-28T05:16:38.120Z,99.99
2024-03-28T05:17:38.106Z,99.99
2024-03-28T05:18:38.104Z,99.99
2024-03-28T05:19:38.087Z,99.99
2024-03-28T05:20:38.082Z,99.99
2024-03-28T05:21:38.106Z,99.99
2024-03-28T05:22:38.065Z,99.99
2024-03-28T05:23:38.062Z,99.99
2024-03-28T05:24:38.097Z,99.99
2024-03-28T05:25:38.052Z,99.99
2024-03-28T05:26:38.071Z,99.99
2024-03-28T05:27:38.039Z,99.99
2024-03-28T05:28:38.042Z,99.99
2024-03-28T05:29:38.036Z,99.99
2024-03-28T05:30:38.015Z,99.99
2024-03-28T05:31:38.011Z,99.99
2024-03-28T05:32:38.001Z,99.99
2024-03-28T05:33:38.013Z,99.99
2024-03-28T05:34:37.991Z,99.99
2024-03-28T05:35:37.982Z,99.99
2024-03-28T05:36:38.027Z,99.99
2024-03-28T05:37:37.964Z,99.99
2024-03-28T05:38:39.022Z,99.99
2024-03-28T05:39:37.957Z,99.99
2024-03-28T05:40:37.970Z,99.99
2024-03-28T05:41:37.954Z,99.99
2024-03-28T05:42:37.931Z,99.99
2024-03-28T05:43:37.930Z,99.99
2024-03-28T05:44:37.917Z,99.99
2024-03-28T05:45:37.906Z,99.99
2024-03-28T05:46:37.991Z,99.99
2024-03-28T05:47:37.906Z,99.99
2024-03-28T05:48:37.952Z,99.99
2024-03-28T05:49:37.912Z,99.99
2024-03-28T05:50:38.081Z,99.99
2024-03-28T05:51:37.872Z,99.99
2024-03-28T05:52:37.859Z,99.99
2024-03-28T05:53:37.860Z,99.99
2024-03-28T05:54:37.847Z,99.99
2024-03-28T05:55:37.866Z,99.99
2024-03-28T05:56:40.031Z,99.99
2024-03-28T05:57:38.879Z,99.99
2024-03-28T05:58:37.832Z,99.99
2024-03-28T05:59:37.838Z,99.99
2024-03-28T06:00:37.829Z,99.99
2024-03-28T06:01:37.806Z,99.99
2024-03-28T06:02:37.881Z,99.99
2024-03-28T06:03:37.807Z,99.99
2024-03-28T06:04:37.784Z,99.99
2024-03-28T06:05:37.841Z,99.99
2024-03-28T06:06:37.833Z,99.99
2024-03-28T06:07:37.822Z,99.99
2024-03-28T06:08:37.825Z,99.99
2024-03-28T06:09:37.744Z,99.99
2024-03-28T06:10:37.766Z,99.93
2024-03-28T06:11:37.790Z,99.68
2024-03-28T06:12:37.736Z,99.99
2024-03-28T06:13:37.947Z,99.99
2024-03-28T06:14:37.749Z,99.47
2024-03-28T06:15:37.720Z,99.99
2024-03-28T06:16:37.866Z,99.84
2024-03-28T06:17:37.700Z,99.94
2024-03-28T06:18:37.700Z,99.73
2024-03-28T06:19:37.749Z,99.73
2024-03-28T06:20:37.683Z,98.80
2024-03-28T06:21:37.730Z,98.91
2024-03-28T06:22:37.674Z,98.50
2024-03-28T06:23:37.665Z,98.50
2024-03-28T06:24:37.650Z,98.19
2024-03-28T06:25:37.663Z,98.29
2024-03-28T06:26:37.683Z,98.85
2024-03-28T06:27:37.651Z,98.80
2024-03-28T06:28:37.629Z,98.19
2024-03-28T06:29:37.610Z,98.19
2024-03-28T06:30:37.613Z,98.39
2024-03-28T06:31:37.639Z,97.42
2024-03-28T06:32:37.660Z,98.08
2024-03-28T06:33:37.644Z,98.24
2024-03-28T06:34:37.594Z,98.03
2024-03-28T06:35:39.863Z,97.01
2024-03-28T06:36:37.584Z,97.73
2024-03-28T06:37:37.589Z,98.14
2024-03-28T06:38:37.578Z,97.52
2024-03-28T06:39:37.556Z,97.63
2024-03-28T06:40:37.539Z,97.01
2024-03-28T06:41:37.667Z,98.14
2024-03-28T06:42:37.522Z,97.52
2024-03-28T06:43:37.531Z,96.86
2024-03-28T06:44:38.981Z,96.45
2024-03-28T06:45:37.530Z,95.93
2024-03-28T06:46:37.507Z,94.80
2024-03-28T06:47:37.495Z,94.45
2024-03-28T06:48:37.499Z,94.45
2024-03-28T06:49:37.487Z,94.20
2024-03-28T06:50:37.487Z,93.68
2024-03-28T06:51:37.504Z,92.71
2024-03-28T06:52:37.462Z,91.60
2024-03-28T06:53:37.459Z,90.53
2024-03-28T06:54:37.448Z,89.50
2024-03-28T06:55:37.442Z,88.53
2024-03-28T06:56:37.435Z,88.14
2024-03-28T06:57:37.433Z,86.77
2024-03-28T06:58:37.446Z,85.56
2024-03-28T06:59:37.424Z,83.88
2024-03-28T07:00:37.426Z,83.74
2024-03-28T07:01:37.408Z,82.00
2024-03-28T07:02:37.397Z,81.59
2024-03-28T07:03:37.399Z,82.35
2024-03-28T07:04:37.380Z,82.17
2024-03-28T07:05:37.387Z,80.83
2024-03-28T07:06:37.375Z,80.91
2024-03-28T07:07:37.366Z,82.63
2024-03-28T07:08:37.380Z,83.69
2024-03-28T07:09:37.345Z,84.61
2024-03-28T07:10:37.354Z,84.88
2024-03-28T07:11:37.326Z,83.37
2024-03-28T07:12:37.328Z,81.15
2024-03-28T07:13:37.328Z,80.46
2024-03-28T07:14:37.316Z,80.22
2024-03-28T07:15:37.298Z,79.84
2024-03-28T07:16:37.356Z,78.38
2024-03-28T07:17:37.292Z,78.09
2024-03-28T07:18:37.328Z,76.32
2024-03-28T07:19:37.285Z,75.82
2024-03-28T07:20:37.271Z,74.22
2024-03-28T07:21:37.278Z,76.06
2024-03-28T07:22:37.265Z,75.34
2024-03-28T07:23:37.267Z,75.95
2024-03-28T07:24:37.271Z,75.61
2024-03-28T07:25:37.238Z,75.78
2024-03-28T07:26:37.238Z,76.03
2024-03-28T07:27:37.224Z,76.84
2024-03-28T07:28:37.249Z,74.56
2024-03-28T07:29:37.220Z,75.13
2024-03-28T07:30:37.215Z,74.79
2024-03-28T07:31:37.199Z,73.94
2024-03-28T07:32:37.196Z,73.47
2024-03-28T07:33:37.197Z,73.98
2024-03-28T07:34:37.187Z,73.67
2024-03-28T07:35:37.184Z,72.55
2024-03-28T07:36:37.167Z,73.94
2024-03-28T07:37:37.183Z,73.13
2024-03-28T07:38:37.184Z,72.41
2024-03-28T07:39:37.182Z,71.91
2024-03-28T07:40:37.142Z,72.92
2024-03-28T07:41:37.136Z,72.28
2024-03-28T07:42:37.146Z,71.73
2024-03-28T07:43:37.118Z,70.10
2024-03-28T07:44:37.141Z,70.28
2024-03-28T07:45:37.108Z,70.58
2024-03-28T07:46:37.118Z,69.46
2024-03-28T07:47:37.148Z,69.26
2024-03-28T07:48:38.039Z,69.29
2024-03-28T07:49:37.096Z,69.90
2024-03-28T07:50:37.098Z,70.38
2024-03-28T07:51:37.065Z,69.46
2024-03-28T07:52:37.053Z,69.76
2024-03-28T07:53:37.052Z,70.21
2024-03-28T07:54:37.330Z,68.04
2024-03-28T07:55:38.043Z,67.94
2024-03-28T07:56:37.018Z,67.97
2024-03-28T07:57:37.015Z,67.60
2024-03-28T07:58:37.056Z,65.43
2024-03-28T07:59:37.014Z,67.74
2024-03-28T08:00:37.014Z,67.71
2024-03-28T08:01:37.000Z,67.57
2024-03-28T08:02:36.974Z,65.13
2024-03-28T08:03:36.985Z,64.58
2024-03-28T08:04:36.968Z,66.08
2024-03-28T08:05:36.969Z,64.79
2024-03-28T08:06:36.945Z,65.80
2024-03-28T08:07:36.949Z,65.80
2024-03-28T08:08:36.948Z,66.33
2024-03-28T08:09:36.930Z,70.10
2024-03-28T08:10:36.913Z,71.22
2024-03-28T08:11:36.934Z,73.30
2024-03-28T08:12:36.906Z,74.32
2024-03-28T08:13:36.920Z,72.99
2024-03-28T08:14:36.888Z,70.85
2024-03-28T08:15:36.902Z,70.38
2024-03-28T08:16:36.969Z,69.36
2024-03-28T08:17:36.879Z,65.91
2024-03-28T08:18:36.863Z,64.62
2024-03-28T08:19:36.859Z,64.56
2024-03-28T08:20:36.874Z,62.02
2024-03-28T08:21:36.835Z,63.42
2024-03-28T08:22:36.844Z,62.71
2024-03-28T08:23:36.847Z,62.40
2024-03-28T08:24:36.840Z,63.88
2024-03-28T08:25:36.815Z,64.36
2024-03-28T08:26:36.825Z,63.49
2024-03-28T08:27:36.817Z,63.02
2024-03-28T08:28:36.792Z,59.99
2024-03-28T08:29:36.804Z,59.99
2024-03-28T08:30:36.796Z,60.06
2024-03-28T08:31:37.491Z,59.43
2024-03-28T08:32:36.775Z,61.36
2024-03-28T08:33:36.775Z,65.22
2024-03-28T08:34:36.761Z,66.39
2024-03-28T08:35:36.755Z,68.43
2024-03-28T08:36:36.795Z,70.98
2024-03-28T08:37:36.736Z,72.24
2024-03-28T08:38:36.729Z,72.17
2024-03-28T08:39:36.729Z,71.97
2024-03-28T08:40:36.753Z,72.52
2024-03-28T08:41:36.742Z,74.43
2024-03-28T08:42:36.726Z,72.69
2024-03-28T08:43:36.711Z,74.43
2024-03-28T08:44:36.688Z,73.54
2024-03-28T08:45:36.718Z,73.13
2024-03-28T08:46:36.702Z,74.49
2024-03-28T08:47:36.777Z,73.78
2024-03-28T08:48:36.673Z,73.06
2024-03-28T08:49:36.675Z,73.78
2024-03-28T08:50:36.660Z,74.53
2024-03-28T08:51:36.683Z,74.53
2024-03-28T08:52:36.673Z,74.02
2024-03-28T08:53:36.710Z,73.71
2024-03-28T08:54:36.661Z,73.71
2024-03-28T08:55:36.631Z,75.15
2024-03-28T08:56:36.661Z,76.17
2024-03-28T08:57:36.651Z,76.17
2024-03-28T08:58:36.639Z,74.98
2024-03-28T08:59:36.634Z,76.78
2024-03-28T09:00:36.630Z,77.03
2024-03-28T09:01:37.553Z,75.69
2024-03-28T09:02:36.597Z,75.28
2024-03-28T09:03:36.557Z,76.72
2024-03-28T09:04:36.600Z,77.33
2024-03-28T09:05:36.583Z,76.62
2024-03-28T09:06:36.618Z,76.55
2024-03-28T09:07:36.539Z,77.26
2024-03-28T09:08:36.580Z,77.26
2024-03-28T09:09:36.574Z,76.72
2024-03-28T09:10:37.438Z,78.05
2024-03-28T09:11:37.497Z,76.31
2024-03-28T09:12:36.506Z,75.49
2024-03-28T09:13:36.546Z,76.31
2024-03-28T09:14:36.471Z,75.11
2024-03-28T09:15:36.477Z,73.98
2024-03-28T09:16:36.504Z,73.57
2024-03-28T09:17:36.456Z,74.70
2024-03-28T09:18:36.455Z,75.11
2024-03-28T09:19:36.450Z,74.40
2024-03-28T09:20:36.435Z,73.91
2024-03-28T09:21:36.444Z,74.02
2024-03-28T09:22:36.461Z,75.11
2024-03-28T09:23:36.419Z,76.75
2024-03-28T09:24:36.445Z,75.83
2024-03-28T09:25:36.518Z,76.45
2024-03-28T09:26:36.715Z,75.21
2024-03-28T09:27:36.392Z,74.63
2024-03-28T09:28:36.405Z,74.63
2024-03-28T09:29:36.371Z,74.94
2024-03-28T09:30:36.371Z,74.12
2024-03-28T09:31:36.578Z,74.12
2024-03-28T09:32:36.346Z,74.02
2024-03-28T09:33:36.341Z,74.43
2024-03-28T09:34:36.336Z,74.74
2024-03-28T09:35:36.331Z,74.84
2024-03-28T09:36:36.323Z,74.94
2024-03-28T09:37:36.316Z,74.77
2024-03-28T09:38:36.303Z,74.94
2024-03-28T09:39:36.308Z,75.15
2024-03-28T09:40:36.352Z,75.25
2024-03-28T09:41:36.273Z,75.01
2024-03-28T09:42:36.310Z,74.84
2024-03-28T09:43:36.271Z,74.94
2024-03-28T09:44:36.261Z,74.94
2024-03-28T09:45:36.245Z,76.79
2024-03-28T09:46:36.317Z,76.68
2024-03-28T09:47:36.238Z,76.89
2024-03-28T09:48:36.221Z,77.40
2024-03-28T09:49:36.242Z,77.55
2024-03-28T09:50:36.210Z,78.57
2024-03-28T09:51:36.215Z,79.74
2024-03-28T09:52:36.254Z,80.15
2024-03-28T09:53:36.251Z,80.46
2024-03-28T09:54:36.193Z,80.80
2024-03-28T09:55:36.198Z,81.01
2024-03-28T09:56:36.219Z,83.20
2024-03-28T09:57:36.162Z,81.76
2024-03-28T09:58:36.248Z,82.83
2024-03-28T09:59:36.158Z,83.25
2024-03-28T10:00:36.282Z,83.62
2024-03-28T10:01:36.234Z,83.48
2024-03-28T10:02:36.141Z,82.71
2024-03-28T10:03:36.123Z,82.86
2024-03-28T10:04:36.128Z,82.24
2024-03-28T10:05:36.109Z,81.87
2024-03-28T10:06:36.162Z,82.55
2024-03-28T10:07:36.109Z,83.06
2024-03-28T10:08:36.085Z,82.86
2024-03-28T10:09:36.074Z,82.34
2024-03-28T10:10:36.093Z,82.55
2024-03-28T10:11:36.112Z,82.39
2024-03-28T10:12:36.046Z,82.18
2024-03-28T10:13:36.056Z,83.20
2024-03-28T10:14:36.050Z,83.62
2024-03-28T10:15:36.036Z,83.62
2024-03-28T10:16:36.099Z,83.92
2024-03-28T10:17:36.027Z,83.31
2024-03-28T10:18:36.006Z,83.86
2024-03-28T10:19:36.048Z,84.23
2024-03-28T10:20:36.005Z,84.34
2024-03-28T10:21:36.078Z,84.99
2024-03-28T10:22:37.030Z,85.51
2024-03-28T10:23:35.984Z,85.71
2024-03-28T10:24:35.979Z,86.13
2024-03-28T10:25:36.047Z,85.82
2024-03-28T10:26:35.972Z,86.43
2024-03-28T10:27:35.958Z,86.23
2024-03-28T10:28:36.018Z,86.13
2024-03-28T10:29:35.958Z,86.54
2024-03-28T10:30:35.940Z,86.64
2024-03-28T10:31:35.959Z,87.09
2024-03-28T10:32:35.930Z,88.84
2024-03-28T10:33:35.937Z,89.25
2024-03-28T10:34:35.926Z,88.64
2024-03-28T10:35:35.911Z,89.05
2024-03-28T10:36:35.889Z,89.25
2024-03-28T10:37:45.332Z,89.25
2024-03-28T10:38:38.003Z,88.84
2024-03-28T10:39:35.869Z,89.56
2024-03-28T10:40:35.873Z,90.08
2024-03-28T10:41:36.526Z,90.96
2024-03-28T10:42:35.861Z,89.36
2024-03-28T10:43:35.874Z,88.84
2024-03-28T10:44:35.844Z,89.01
2024-03-28T10:45:35.842Z,89.52
2024-03-28T10:46:35.845Z,89.42
2024-03-28T10:47:35.912Z,89.11
2024-03-28T10:48:35.847Z,89.83
2024-03-28T10:49:35.874Z,90.86
2024-03-28T10:50:35.797Z,90.03
2024-03-28T10:51:35.785Z,90.96
2024-03-28T10:52:35.841Z,90.69
2024-03-28T10:53:37.872Z,91.72
2024-03-28T10:54:35.901Z,92.50
2024-03-28T10:55:36.198Z,92.92
2024-03-28T10:56:36.750Z,93.12
2024-03-28T10:57:35.754Z,91.89
2024-03-28T10:58:35.752Z,92.40
2024-03-28T10:59:35.748Z,92.20
2024-03-28T11:00:35.727Z,92.40
2024-03-28T11:01:36.443Z,91.89
2024-03-28T11:02:36.771Z,91.68
2024-03-28T11:03:35.705Z,91.58
2024-03-28T11:04:35.731Z,91.47
2024-03-28T11:05:35.722Z,91.38
2024-03-28T11:06:35.693Z,90.90
2024-03-28T11:07:35.715Z,90.66
2024-03-28T11:08:35.678Z,91.38
2024-03-28T11:09:35.662Z,91.06
2024-03-28T11:10:35.678Z,91.78
2024-03-28T11:11:35.664Z,91.68
2024-03-28T11:12:35.645Z,91.78
2024-03-28T11:13:35.651Z,91.78
2024-03-28T11:14:35.641Z,91.42
2024-03-28T11:15:35.642Z,91.38
2024-03-28T11:16:35.721Z,90.90
2024-03-28T11:17:35.631Z,91.78
2024-03-28T11:18:35.601Z,92.40
2024-03-28T11:19:35.612Z,92.34
2024-03-28T11:20:35.585Z,92.65
2024-03-28T11:21:36.061Z,93.02
2024-03-28T11:22:35.596Z,92.20
2024-03-28T11:23:35.580Z,91.47
2024-03-28T11:24:35.563Z,91.99
2024-03-28T11:25:36.838Z,91.78
2024-03-28T11:26:36.056Z,91.17
2024-03-28T11:27:35.589Z,91.13
2024-03-28T11:28:35.591Z,92.16
2024-03-28T11:29:35.536Z,91.95
2024-03-28T11:30:36.583Z,91.33
2024-03-28T11:31:38.610Z,91.13
2024-03-28T11:32:36.508Z,91.33
2024-03-28T11:33:35.496Z,92.11
2024-03-28T11:34:35.513Z,90.92
2024-03-28T11:35:35.502Z,90.06
2024-03-28T11:36:36.041Z,90.81
2024-03-28T11:37:35.533Z,90.81
2024-03-28T11:38:35.475Z,90.61
2024-03-28T11:39:35.503Z,90.06
2024-03-28T11:40:35.510Z,90.09
2024-03-28T11:41:35.452Z,89.79
2024-03-28T11:42:39.710Z,89.79
2024-03-28T11:43:37.501Z,90.78
2024-03-28T11:44:35.430Z,89.75
2024-03-28T11:45:35.428Z,89.13
2024-03-28T11:46:35.465Z,89.54
2024-03-28T11:47:35.465Z,89.44
2024-03-28T11:48:35.506Z,88.41
2024-03-28T11:49:35.403Z,88.41
2024-03-28T11:50:35.388Z,89.03
2024-03-28T11:51:35.453Z,88.51
2024-03-28T11:52:36.418Z,88.92
2024-03-28T11:53:35.478Z,88.62
2024-03-28T11:54:35.389Z,88.89
2024-03-28T11:55:35.372Z,89.13
2024-03-28T11:56:35.363Z,89.34
2024-03-28T11:57:35.370Z,88.92
2024-03-28T11:58:35.375Z,88.62
2024-03-28T11:59:35.333Z,88.98
2024-03-28T12:00:35.351Z,89.19
2024-03-28T12:01:36.827Z,88.89
2024-03-28T12:02:35.340Z,87.30
2024-03-28T12:03:35.311Z,88.12
2024-03-28T12:04:35.294Z,88.29
2024-03-28T12:05:35.305Z,88.12
2024-03-28T12:06:35.486Z,87.98
2024-03-28T12:07:35.276Z,86.75
2024-03-28T12:08:41.647Z,87.05
2024-03-28T12:09:36.293Z,87.05
2024-03-28T12:10:35.254Z,85.93
2024-03-28T12:11:35.290Z,85.82
2024-03-28T12:12:35.269Z,86.13
2024-03-28T12:13:35.309Z,86.95
2024-03-28T12:14:35.222Z,86.07
2024-03-28T12:15:35.225Z,86.48
2024-03-28T12:16:35.263Z,86.38
2024-03-28T12:17:35.221Z,86.17
2024-03-28T12:18:35.194Z,86.79
2024-03-28T12:19:35.197Z,86.89
2024-03-28T12:20:35.195Z,86.68
2024-03-28T12:21:35.180Z,86.27
2024-03-28T12:22:35.280Z,85.86
2024-03-28T12:23:35.158Z,86.07
2024-03-28T12:24:35.148Z,86.68
2024-03-28T12:25:35.168Z,87.10
2024-03-28T12:26:35.134Z,85.93
2024-03-28T12:27:35.161Z,85.93
2024-03-28T12:28:35.172Z,85.95
2024-03-28T12:29:35.121Z,83.27
2024-03-28T12:30:35.171Z,80.49
2024-03-28T12:31:35.202Z,79.19
2024-03-28T12:32:35.137Z,76.70
2024-03-28T12:33:35.090Z,76.22
2024-03-28T12:34:35.192Z,74.55
2024-03-28T12:35:35.184Z,74.96
2024-03-28T12:36:36.090Z,71.43
2024-03-28T12:37:35.070Z,70.18
2024-03-28T12:38:35.066Z,70.10
2024-03-28T12:39:35.069Z,70.62
2024-03-28T12:40:35.549Z,70.92
2024-03-28T12:41:35.044Z,69.13
2024-03-28T12:42:35.043Z,68.66
2024-03-28T12:43:35.038Z,67.02
2024-03-28T12:44:35.027Z,69.40
2024-03-28T12:45:35.087Z,67.63
2024-03-28T12:46:35.191Z,69.91
2024-03-28T12:47:34.993Z,64.42
2024-03-28T12:48:35.947Z,66.69
2024-03-28T12:49:34.976Z,66.66
2024-03-28T12:50:34.964Z,67.33
2024-03-28T12:51:34.989Z,63.28
2024-03-28T12:52:35.189Z,63.92